Time;durP1;ratioP1;P1;durP2;ratioP2;P2;SDS_P1;SDS_P2;PMS_P1;PMS_P2;Temp;Humidity;BMP_temperature;BMP_pressure;BME280_temperature;BME280_humidity;BME280_pressure;Samples;Min_cycle;Max_cycle;Signal;HPM_P1;HPM_P2
2023/08/27 00:02:03;;;;;;;1999.90;999.90;;;;;;;16.89;100.00;93693.75;5064095;28;20178;-59
2023/08/27 00:04:29;;;;;;;1999.90;999.90;;;;;;;16.85;100.00;93693.16;5064536;28;20215;-59
2023/08/27 00:06:54;;;;;;;1999.90;999.90;;;;;;;16.86;100.00;93678.16;5064294;28;20178;-59
2023/08/27 00:09:20;;;;;;;1999.90;999.90;;;;;;;16.83;100.00;93671.63;5063707;28;20174;-58
2023/08/27 00:11:45;;;;;;;1999.90;999.90;;;;;;;16.79;100.00;93662.03;5064156;28;20174;-59
2023/08/27 00:14:10;;;;;;;1999.90;999.90;;;;;;;16.84;100.00;93647.53;5063636;28;20169;-59
2023/08/27 00:16:36;;;;;;;1999.90;999.90;;;;;;;16.86;100.00;93645.06;5063613;28;20170;-58
2023/08/27 00:19:03;;;;;;;1999.90;999.90;;;;;;;16.82;100.00;93641.78;5064121;28;20215;-59
2023/08/27 00:21:28;;;;;;;1999.90;999.90;;;;;;;16.76;100.00;93636.19;5063530;28;20174;-59
2023/08/27 00:23:53;;;;;;;1999.90;999.90;;;;;;;16.77;100.00;93637.72;5064138;28;20247;-59
2023/08/27 00:26:19;;;;;;;1999.90;999.90;;;;;;;16.68;100.00;93645.38;5064108;28;20177;-58
2023/08/27 00:28:44;;;;;;;1999.90;999.90;;;;;;;16.74;100.00;93648.94;5064709;28;20189;-59
2023/08/27 00:31:09;;;;;;;1999.90;999.90;;;;;;;16.68;100.00;93653.66;5067839;28;20179;-59
2023/08/27 00:33:35;;;;;;;1999.90;999.90;;;;;;;16.74;100.00;93659.97;5068094;28;20350;-59
2023/08/27 00:36:00;;;;;;;1999.90;999.90;;;;;;;16.82;100.00;93658.31;5067351;28;20201;-59
2023/08/27 00:38:25;;;;;;;1999.90;999.90;;;;;;;16.83;100.00;93651.56;5067458;28;20181;-58
2023/08/27 00:40:51;;;;;;;1999.90;999.90;;;;;;;16.80;100.00;93627.69;5067130;28;20170;-59
2023/08/27 00:43:16;;;;;;;1999.90;999.90;;;;;;;16.78;100.00;93610.91;5067346;28;20194;-58
2023/08/27 00:45:42;;;;;;;1999.90;999.90;;;;;;;16.80;100.00;93602.88;5067361;28;20173;-58
2023/08/27 00:48:08;;;;;;;1999.90;999.90;;;;;;;16.80;100.00;93605.66;5067315;28;20178;-59
2023/08/27 00:50:33;;;;;;;1999.90;999.90;;;;;;;16.74;100.00;93610.34;5067314;28;20202;-59
2023/08/27 00:52:59;;;;;;;1999.90;999.90;;;;;;;16.69;100.00;93602.78;5067638;28;20177;-58
2023/08/27 00:55:24;;;;;;;1999.90;999.90;;;;;;;16.70;100.00;93613.31;5067383;28;20205;-58
2023/08/27 00:57:51;;;;;;;1999.90;999.90;;;;;;;16.69;100.00;93606.31;5066979;28;20239;-59
2023/08/27 01:00:18;;;;;;;1999.90;999.90;;;;;;;16.65;100.00;93588.44;5067134;28;20537;-58
2023/08/27 01:02:44;;;;;;;1999.90;999.90;;;;;;;16.65;100.00;93585.69;5067287;28;20170;-58
2023/08/27 01:05:12;;;;;;;1999.90;999.90;;;;;;;16.62;100.00;93592.94;5067736;28;20209;-58
2023/08/27 01:08:08;;;;;;;1999.90;999.90;;;;;;;16.65;100.00;93585.69;5066949;28;20169;-58
2023/08/27 01:10:46;;;;;;;1999.90;999.90;;;;;;;16.70;100.00;93580.25;5067469;28;20175;-58
2023/08/27 01:13:16;;;;;;;1999.90;999.90;;;;;;;16.65;100.00;93580.94;5067378;28;20166;-59
2023/08/27 01:15:45;;;;;;;1999.90;999.90;;;;;;;16.76;100.00;93591.31;5067144;28;20197;-58
2023/08/27 01:18:13;;;;;;;1999.90;999.90;;;;;;;16.73;100.00;93592.28;5066698;28;20178;-58
2023/08/27 01:20:40;;;;;;;1999.90;999.90;;;;;;;16.71;100.00;93609.31;5066718;28;20170;-58
2023/08/27 01:23:05;;;;;;;1999.90;999.90;;;;;;;16.81;100.00;93612.66;5067167;28;20177;-59
2023/08/27 01:25:40;;;;;;;1999.90;999.90;;;;;;;16.80;100.00;93619.44;5066267;28;20170;-59
2023/08/27 01:28:13;;;;;;;1999.90;999.90;;;;;;;16.81;100.00;93618.94;5067060;28;20192;-58
2023/08/27 01:30:55;;;;;;;1999.90;999.90;;;;;;;16.86;100.00;93617.50;5067152;28;20158;-58
2023/08/27 01:33:24;;;;;;;1999.90;999.90;;;;;;;16.78;100.00;93606.13;5067072;28;20189;-58
2023/08/27 01:35:51;;;;;;;1999.90;999.90;;;;;;;16.77;100.00;93607.38;5066831;28;20194;-58
2023/08/27 01:38:18;;;;;;;1999.90;999.90;;;;;;;16.74;100.00;93610.34;5066300;28;20170;-58
2023/08/27 01:40:43;;;;;;;1999.90;999.90;;;;;;;16.74;100.00;93615.84;5066378;28;20169;-58
2023/08/27 01:43:09;;;;;;;1999.90;999.90;;;;;;;16.69;100.00;93617.31;5066754;28;20190;-59
2023/08/27 01:45:34;;;;;;;1999.90;999.90;;;;;;;16.68;100.00;93615.06;5066220;28;20177;-58
2023/08/27 01:48:00;;;;;;;1999.90;999.90;;;;;;;16.70;100.00;93612.56;5066121;28;20170;-58
2023/08/27 01:50:25;;;;;;;1999.90;999.90;;;;;;;16.70;100.00;93623.56;5066244;28;20276;-57
2023/08/27 01:52:50;;;;;;;1999.90;999.90;;;;;;;16.70;100.00;93618.06;5066029;28;20474;-57
2023/08/27 01:55:16;;;;;;;1999.90;999.90;;;;;;;16.67;100.00;93599.75;5066839;28;20190;-57
2023/08/27 01:57:41;;;;;;;1999.90;999.90;;;;;;;16.65;100.00;93596.72;5065971;28;20170;-57
2023/08/27 02:00:09;;;;;;;1999.90;999.90;;;;;;;16.65;100.00;93580.19;5065846;28;20224;-56
2023/08/27 02:02:37;;;;;;;1999.90;999.90;;;;;;;16.69;100.00;93580.72;5065868;28;20174;-50
2023/08/27 02:05:04;;;;;;;1999.90;999.90;;;;;;;16.70;100.00;93565.69;5065773;28;20180;-52
2023/08/27 02:07:30;;;;;;;1999.90;999.90;;;;;;;16.71;100.00;93561.72;5066261;28;20189;-53
2023/08/27 02:09:56;;;;;;;1999.90;999.90;;;;;;;16.77;100.00;93568.00;5066566;28;20237;-53
2023/08/27 02:12:21;;;;;;;1999.90;999.90;;;;;;;16.84;100.00;93545.53;5065678;28;20170;-52
2023/08/27 02:14:47;;;;;;;1999.90;999.90;;;;;;;16.92;100.00;93521.78;5065621;28;20247;-53
2023/08/27 02:17:13;;;;;;;1999.90;999.90;;;;;;;16.98;100.00;93506.78;5066148;28;20268;-53
2023/08/27 02:19:38;;;;;;;1999.90;999.90;;;;;;;16.97;100.00;93480.44;5065714;28;20173;-51
2023/08/27 02:22:03;;;;;;;1999.90;999.90;;;;;;;16.97;100.00;93480.44;5066041;28;20234;-53
2023/08/27 02:24:29;;;;;;;1999.90;999.90;;;;;;;16.98;100.00;93490.25;5065449;28;20169;-53
2023/08/27 02:26:54;;;;;;;1999.90;999.90;;;;;;;16.96;100.00;93491.97;5065680;28;20170;-53
2023/08/27 02:29:19;;;;;;;1999.90;999.90;;;;;;;16.96;100.00;93494.72;5066022;28;20177;-55
2023/08/27 02:31:44;;;;;;;1999.90;999.90;;;;;;;16.99;100.00;93499.25;5065374;28;20237;-52
2023/08/27 02:34:10;;;;;;;1999.90;999.90;;;;;;;17.04;100.00;93495.81;5065641;28;20173;-55
2023/08/27 02:36:35;;;;;;;1999.90;999.90;;;;;;;17.06;100.00;93498.81;5065472;28;20536;-55
2023/08/27 02:39:01;;;;;;;1999.90;999.90;;;;;;;17.07;100.00;93503.84;5065504;28;20226;-53
2023/08/27 02:41:26;;;;;;;1999.90;999.90;;;;;;;17.03;100.00;93516.34;5065712;28;20177;-51
2023/08/27 02:43:51;;;;;;;1999.90;999.90;;;;;;;17.03;100.00;93508.06;5065027;28;20194;-52
2023/08/27 02:46:17;;;;;;;1999.90;999.90;;;;;;;17.00;100.00;93507.03;5065049;28;20201;-55
2023/08/27 02:48:42;;;;;;;1999.90;999.90;;;;;;;17.03;100.00;93519.88;5065061;28;20174;-54
2023/08/27 02:51:07;;;;;;;1999.90;999.90;;;;;;;17.00;100.00;93531.88;5065214;28;20180;-55
2023/08/27 02:53:32;;;;;;;1999.90;999.90;;;;;;;16.98;100.00;93533.59;5064007;28;20177;-53
2023/08/27 02:55:58;;;;;;;1999.90;999.90;;;;;;;16.99;100.00;93543.38;5064808;28;20208;-50
2023/08/27 02:58:23;;;;;;;1999.90;999.90;;;;;;;16.98;100.00;93548.16;5064609;28;20364;-53
2023/08/27 03:00:48;;;;;;;1999.90;999.90;;;;;;;16.99;100.00;93548.91;5064860;28;20527;-51
2023/08/27 03:03:14;;;;;;;1999.90;999.90;;;;;;;16.97;100.00;93548.66;5065229;28;20216;-53
2023/08/27 03:05:40;;;;;;;1999.90;999.90;;;;;;;16.96;100.00;93552.63;5065233;28;20197;-55
2023/08/27 03:08:05;;;;;;;1999.90;999.90;;;;;;;16.94;100.00;93536.59;5064729;28;20177;-55
2023/08/27 03:10:31;;;;;;;1999.90;999.90;;;;;;;16.96;100.00;93539.63;5065038;28;20240;-53
2023/08/27 03:12:56;;;;;;;1999.90;999.90;;;;;;;16.98;100.00;93542.66;5065053;28;20223;-55
2023/08/27 03:15:21;;;;;;;1999.90;999.90;;;;;;;17.00;100.00;93545.66;5065254;28;20228;-55
2023/08/27 03:17:47;;;;;;;1999.90;999.90;;;;;;;17.05;100.00;93552.47;5065085;28;20180;-52
2023/08/27 03:20:12;;;;;;;1999.90;999.90;;;;;;;17.08;100.00;93557.03;5064806;28;20170;-53
2023/08/27 03:22:37;;;;;;;1999.90;999.90;;;;;;;17.03;100.00;93577.03;5065221;28;20173;-53
2023/08/27 03:25:03;;;;;;;1999.90;999.90;;;;;;;17.02;100.00;93598.34;5064747;28;20173;-53
2023/08/27 03:27:29;;;;;;;1999.90;999.90;;;;;;;16.99;100.00;93612.34;5064860;28;20188;-54
2023/08/27 03:29:54;;;;;;;1999.90;999.90;;;;;;;16.93;100.00;93622.59;5064477;28;20178;-51
2023/08/27 03:32:19;;;;;;;1999.90;999.90;;;;;;;16.90;100.00;93637.34;5064786;28;20170;-52
2023/08/27 03:34:45;;;;;;;1999.90;999.90;;;;;;;16.89;100.00;93644.09;5064644;28;20194;-51
2023/08/27 03:37:10;;;;;;;1999.90;999.90;;;;;;;16.89;100.00;93655.88;5064651;28;20255;-56
2023/08/27 03:39:35;;;;;;;1999.90;999.90;;;;;;;16.87;100.00;93643.81;5064326;28;20228;-54
2023/08/27 03:42:01;;;;;;;1999.90;999.90;;;;;;;16.92;100.00;93612.78;5064603;28;20174;-52
2023/08/27 03:44:26;;;;;;;1999.90;999.90;;;;;;;16.90;100.00;93635.31;5063888;28;20190;-51
2023/08/27 03:46:52;;;;;;;1999.90;999.90;;;;;;;16.90;100.00;93649.09;5064069;28;20174;-57
2023/08/27 03:49:17;;;;;;;1999.90;999.90;;;;;;;16.91;100.00;93664.44;5064034;28;20169;-56
2023/08/27 03:51:42;;;;;;;1999.90;999.90;;;;;;;16.92;100.00;93684.47;5064199;28;20236;-53
2023/08/27 03:54:08;;;;;;;1999.90;999.90;;;;;;;16.89;100.00;93704.78;5064096;28;20173;-54
2023/08/27 03:56:33;;;;;;;1999.90;999.90;;;;;;;16.85;100.00;93704.19;5064397;28;20197;-52
2023/08/27 03:58:59;;;;;;;1999.90;999.90;;;;;;;16.82;100.00;93876.16;5063807;28;20257;-51
2023/08/27 04:01:24;;;;;;;1999.90;999.90;;;;;;;16.76;100.00;93873.31;5063622;28;20217;-54
2023/08/27 04:03:50;;;;;;;1999.90;999.90;;;;;;;16.76;100.00;93897.34;5063422;28;20207;-53
2023/08/27 04:06:15;;;;;;;1999.90;999.90;;;;;;;16.65;100.00;93908.22;5064323;28;20178;-54
2023/08/27 04:08:40;;;;;;;1999.90;999.90;;;;;;;16.70;100.00;93924.06;5063771;28;20177;-52
2023/08/27 04:11:06;;;;;;;1999.90;999.90;;;;;;;16.73;100.00;93931.41;5064258;28;20198;-53
2023/08/27 04:13:31;;;;;;;1999.90;999.90;;;;;;;16.79;100.00;93955.06;5064223;28;20223;-52
2023/08/27 04:16:03;;;;;;;1999.90;999.90;;;;;;;16.83;100.00;93969.44;5063582;28;20205;-53
2023/08/27 04:18:28;;;;;;;1999.90;999.90;;;;;;;16.84;100.00;93983.97;5063662;28;20227;-48
2023/08/27 04:20:55;;;;;;;1999.90;999.90;;;;;;;16.88;100.00;93992.78;5064068;28;20170;-52
2023/08/27 04:23:20;;;;;;;1999.90;999.90;;;;;;;16.87;100.00;93989.28;5063583;28;20170;-53
2023/08/27 04:25:46;;;;;;;1999.90;999.90;;;;;;;16.86;100.00;93975.97;5063639;28;20172;-54
2023/08/27 04:28:12;;;;;;;1999.90;999.90;;;;;;;16.85;100.00;93908.25;5063609;28;20201;-50
2023/08/27 04:30:38;;;;;;;1999.90;999.90;;;;;;;16.85;100.00;93886.97;5063600;28;20166;-47
2023/08/27 04:33:05;;;;;;;1999.90;999.90;;;;;;;16.89;100.00;93875.75;5063221;28;20174;-53
2023/08/27 04:35:31;;;;;;;1999.90;999.90;;;;;;;16.90;100.00;93877.25;5064308;28;20273;-49
2023/08/27 04:37:56;;;;;;;1999.90;999.90;;;;;;;16.92;100.00;93875.53;5063496;28;20174;-53
2023/08/27 04:40:21;;;;;;;1999.90;999.90;;;;;;;16.97;100.00;93871.34;5063468;28;20170;-48
2023/08/27 04:42:47;;;;;;;1999.90;999.90;;;;;;;16.99;100.00;93874.38;5063559;28;20197;-51
2023/08/27 04:45:12;;;;;;;1999.90;999.90;;;;;;;16.99;100.00;93879.88;5063446;28;20173;-50
2023/08/27 04:47:38;;;;;;;1999.90;999.90;;;;;;;16.96;100.00;93881.59;5063920;28;20166;-52
2023/08/27 04:50:04;;;;;;;1999.90;999.90;;;;;;;16.94;100.00;93899.88;5063866;28;20241;-49
2023/08/27 04:52:29;;;;;;;1999.90;999.90;;;;;;;16.95;100.00;93890.34;5063321;28;20169;-53
2023/08/27 04:54:55;;;;;;;1999.90;999.90;;;;;;;16.93;100.00;93887.34;5063577;28;20204;-51
2023/08/27 04:57:20;;;;;;;1999.90;999.90;;;;;;;16.95;100.00;93879.31;5063238;28;20220;-51
2023/08/27 04:59:45;;;;;;;1999.90;999.90;;;;;;;16.95;100.00;93882.09;5063287;28;20221;-50
2023/08/27 05:02:11;;;;;;;1999.90;999.90;;;;;;;16.96;100.00;93883.59;5063710;28;20166;-49
2023/08/27 05:04:36;;;;;;;1999.90;999.90;;;;;;;16.96;100.00;93883.59;5063286;28;20237;-50
2023/08/27 05:07:02;;;;;;;1999.90;999.90;;;;;;;16.98;100.00;93897.69;5063880;28;20166;-49
2023/08/27 05:09:27;;;;;;;1999.90;999.90;;;;;;;17.05;100.00;93897.28;5063310;28;20176;-45
2023/08/27 05:11:52;;;;;;;1999.90;999.90;;;;;;;17.05;100.00;93903.56;5063145;28;20241;-46
2023/08/27 05:14:18;;;;;;;1999.90;999.90;;;;;;;17.04;100.00;93904.03;5063736;28;20173;-45
2023/08/27 05:16:44;;;;;;;1999.90;999.90;;;;;;;17.05;100.00;93891.75;5065936;28;20243;-46
2023/08/27 05:19:09;;;;;;;1999.90;999.90;;;;;;;17.04;100.00;93887.50;5067233;28;20165;-48
2023/08/27 05:21:35;;;;;;;1999.90;999.90;;;;;;;17.03;100.00;93864.66;5066701;28;20165;-47
2023/08/27 05:24:00;;;;;;;1999.90;999.90;;;;;;;17.06;100.00;93873.97;5066645;28;20169;-45
2023/08/27 05:26:25;;;;;;;1999.90;999.90;;;;;;;17.08;100.00;93888.78;5067117;28;20180;-48
2023/08/27 05:28:51;;;;;;;1999.90;999.90;;;;;;;17.07;100.00;93886.50;5066902;28;20201;-47
2023/08/27 05:31:16;;;;;;;1999.90;999.90;;;;;;;17.06;100.00;93896.03;5066451;28;20220;-48
2023/08/27 05:33:42;;;;;;;1999.90;999.90;;;;;;;17.03;100.00;93897.75;5067297;28;20233;-48
2023/08/27 05:36:07;;;;;;;1999.90;999.90;;;;;;;17.03;100.00;93897.75;5066316;28;20255;-47
2023/08/27 05:38:32;;;;;;;1999.90;999.90;;;;;;;17.05;100.00;93894.50;5066706;28;20179;-47
2023/08/27 05:40:58;;;;;;;1999.90;999.90;;;;;;;17.07;100.00;93905.81;5066330;28;20161;-46
2023/08/27 05:43:24;;;;;;;1999.90;999.90;;;;;;;17.10;100.00;93902.09;5066480;28;20189;-48
2023/08/27 05:45:49;;;;;;;1999.90;999.90;;;;;;;17.14;100.00;93897.13;5066976;28;20170;-50
2023/08/27 05:48:15;;;;;;;1999.90;999.90;;;;;;;17.17;100.00;93890.66;5066760;28;20173;-45
2023/08/27 05:50:40;;;;;;;1999.90;999.90;;;;;;;17.19;100.00;93899.22;5066287;28;20231;-50
2023/08/27 05:53:05;;;;;;;1999.90;999.90;;;;;;;17.23;100.00;93899.78;5066066;28;20173;-46
2023/08/27 05:55:31;;;;;;;1999.90;999.90;;;;;;;17.24;100.00;93885.50;5066555;28;20194;-46
2023/08/27 05:57:56;;;;;;;1999.90;999.90;;;;;;;17.20;100.00;93895.22;5066117;28;20196;-51
2023/08/27 06:00:21;;;;;;;1999.90;999.90;;;;;;;17.15;100.00;93898.66;5065785;28;20210;-47
2023/08/27 06:02:47;;;;;;;1999.90;999.90;;;;;;;17.11;100.00;93909.16;5066443;28;20170;-52
2023/08/27 06:05:13;;;;;;;1999.90;999.90;;;;;;;17.14;100.00;93913.69;5065893;28;20166;-52
2023/08/27 06:07:39;;;;;;;1999.90;999.90;;;;;;;17.22;100.00;93914.81;5065878;28;20166;-53
2023/08/27 06:10:05;;;;;;;1999.90;999.90;;;;;;;17.21;100.00;93918.81;5066592;28;20190;-47
2023/08/27 06:12:30;;;;;;;1999.90;999.90;;;;;;;17.28;100.00;93935.72;5066437;28;20211;-52
2023/08/27 06:14:56;;;;;;;1999.90;999.90;;;;;;;17.26;100.00;93926.41;5066130;28;20277;-51
2023/08/27 06:17:22;;;;;;;1999.90;999.90;;;;;;;17.25;100.00;93902.78;5065672;28;20229;-48
2023/08/27 06:19:47;;;;;;;1999.90;999.90;;;;;;;17.27;100.00;93905.84;5065817;28;20173;-50
2023/08/27 06:22:13;;;;;;;1999.90;999.90;;;;;;;17.25;100.00;93908.31;5065361;28;20228;-51
2023/08/27 06:24:38;;;;;;;1999.90;999.90;;;;;;;17.30;100.00;93910.41;5065656;28;20169;-47
2023/08/27 06:27:03;;;;;;;1999.90;999.90;;;;;;;17.33;100.00;93909.44;5065301;28;20166;-50
2023/08/27 06:29:29;;;;;;;1999.90;999.90;;;;;;;17.31;100.00;93896.13;5065436;28;20166;-49
2023/08/27 06:31:55;;;;;;;1999.90;999.90;;;;;;;17.31;100.00;93895.34;5065953;28;20169;-50
2023/08/27 06:34:21;;;;;;;1999.90;999.90;;;;;;;17.37;100.00;93890.69;5065447;28;20176;-50
2023/08/27 06:36:46;;;;;;;1999.90;999.90;;;;;;;17.37;100.00;93893.44;5065208;28;20202;-52
2023/08/27 06:39:11;;;;;;;1999.90;999.90;;;;;;;17.31;100.00;93887.09;5065176;28;20212;-51
2023/08/27 06:41:37;;;;;;;1999.90;999.90;;;;;;;17.26;100.00;93894.03;5065323;28;20173;-51
2023/08/27 06:44:02;;;;;;;1999.90;999.90;;;;;;;17.26;100.00;93885.03;5065631;28;20194;-50
2023/08/27 06:46:28;;;;;;;1999.90;999.90;;;;;;;17.20;100.00;93900.75;5065834;28;20233;-49
2023/08/27 06:48:53;;;;;;;1999.90;999.90;;;;;;;17.17;100.00;93907.97;5065009;28;20577;-55
2023/08/27 06:51:18;;;;;;;1999.90;999.90;;;;;;;17.15;100.00;93901.44;5065056;28;20170;-51
2023/08/27 06:53:44;;;;;;;1999.90;999.90;;;;;;;17.12;100.00;93900.38;5065510;28;20189;-49
2023/08/27 06:56:09;;;;;;;1999.90;999.90;;;;;;;17.15;100.00;93899.41;5065418;28;20265;-48
2023/08/27 06:58:34;;;;;;;1999.90;999.90;;;;;;;17.15;100.00;93901.44;5065172;28;20177;-47
2023/08/27 07:01:04;;;;;;;1999.90;999.90;;;;;;;17.12;100.00;93897.63;5065056;28;20276;-47
2023/08/27 07:03:30;;;;;;;1999.90;999.90;;;;;;;17.17;100.00;93890.66;5065317;28;20176;-47
2023/08/27 07:05:55;;;;;;;1999.90;999.90;;;;;;;17.18;100.00;93894.94;5064732;28;20166;-46
2023/08/27 07:08:20;;;;;;;1999.90;999.90;;;;;;;17.17;100.00;93896.19;5065235;28;20169;-47
2023/08/27 07:10:46;;;;;;;1999.90;999.90;;;;;;;17.19;100.00;93890.94;5065408;28;20166;-45
2023/08/27 07:13:11;;;;;;;1999.90;999.90;;;;;;;17.17;100.00;93874.88;5065096;28;20170;-45
2023/08/27 07:15:36;;;;;;;1999.90;999.90;;;;;;;17.29;100.00;93867.47;5064937;28;20225;-48
2023/08/27 07:18:02;;;;;;;1999.90;999.90;;;;;;;17.34;100.00;93877.84;5065345;28;20175;-46
2023/08/27 07:20:27;;;;;;;1999.90;999.90;;;;;;;17.39;100.00;93890.94;5064876;28;20177;-46
2023/08/27 07:22:53;;;;;;;1999.90;999.90;;;;;;;17.38;100.00;93894.94;5064700;28;20220;-49
2023/08/27 07:25:21;;;;;;;1999.90;999.90;;;;;;;17.35;100.00;93901.44;5064420;28;20178;-48
2023/08/27 07:27:46;;;;;;;1999.90;999.90;;;;;;;17.37;100.00;93898.97;5065156;28;20215;-51
2023/08/27 07:30:12;;;;;;;1999.90;999.90;;;;;;;17.42;100.00;93904.56;5064821;28;20186;-48
2023/08/27 07:32:37;;;;;;;1999.90;999.90;;;;;;;17.41;100.00;93922.34;5064814;28;20360;-48
2023/08/27 07:35:03;;;;;;;1999.90;999.90;;;;;;;17.42;100.00;93923.13;5064599;28;20201;-52
2023/08/27 07:37:28;;;;;;;1999.90;999.90;;;;;;;17.34;100.00;93910.97;5064682;28;20180;-48
2023/08/27 07:39:53;;;;;;;1999.90;999.90;;;;;;;17.27;100.00;93916.88;5064068;28;20173;-50
2023/08/27 07:42:21;;;;;;;1999.90;999.90;;;;;;;17.24;100.00;93913.09;5064281;28;20224;-46
2023/08/27 07:44:47;;;;;;;1999.90;999.90;;;;;;;17.35;100.00;93893.16;5063913;28;20200;-47
2023/08/27 07:47:13;;;;;;;1999.90;999.90;;;;;;;17.46;100.00;93893.31;5063997;28;20169;-47
2023/08/27 07:49:38;;;;;;;1999.90;999.90;;;;;;;17.48;100.00;93905.38;5064061;28;20177;-48
2023/08/27 07:52:04;;;;;;;1999.90;999.90;;;;;;;17.45;100.00;93905.59;5063988;28;20169;-48
2023/08/27 07:54:29;;;;;;;1999.90;999.90;;;;;;;17.45;100.00;93897.31;5064128;28;20186;-49
2023/08/27 07:56:54;;;;;;;1999.90;999.90;;;;;;;17.51;100.00;93892.59;5064158;28;20194;-48
2023/08/27 07:59:20;;;;;;;1999.90;999.90;;;;;;;17.50;100.00;93896.63;5063824;28;20208;-51
2023/08/27 08:01:45;;;;;;;1999.90;999.90;;;;;;;17.50;100.00;93885.56;5064026;28;20229;-51
2023/08/27 08:04:10;;;;;;;1999.90;999.90;;;;;;;17.49;100.00;93878.56;5064012;28;20170;-47
2023/08/27 08:06:36;;;;;;;1999.90;999.90;;;;;;;17.51;100.00;93876.03;5063766;28;20241;-45
2023/08/27 08:09:01;;;;;;;1999.90;999.90;;;;;;;17.51;100.00;93876.81;5063646;28;20178;-49
2023/08/27 08:11:27;;;;;;;1999.90;999.90;;;;;;;17.46;100.00;93868.47;5063738;28;20209;-47
2023/08/27 08:13:52;;;;;;;1999.90;999.90;;;;;;;17.47;100.00;93853.41;5064056;28;20174;-50
2023/08/27 08:16:17;;;;;;;1999.90;999.90;;;;;;;17.44;100.00;93860.66;5063606;28;20197;-55
2023/08/27 08:18:43;;;;;;;1999.90;999.90;;;;;;;17.49;100.00;93867.50;5063594;28;20174;-47
2023/08/27 08:21:08;;;;;;;1999.90;999.90;;;;;;;17.47;100.00;93856.94;5063808;28;20182;-46
2023/08/27 08:23:33;;;;;;;1999.90;999.90;;;;;;;17.53;100.00;93851.50;5064050;28;20177;-47
2023/08/27 08:26:00;;;;;;;1999.90;999.90;;;;;;;17.60;100.00;93856.59;5063934;28;20204;-47
2023/08/27 08:28:26;;;;;;;1999.90;999.90;;;;;;;17.66;100.00;93855.41;5064111;28;20194;-48
2023/08/27 08:30:51;;;;;;;1999.90;999.90;;;;;;;17.67;100.00;93859.66;5063622;28;20177;-46
2023/08/27 08:33:17;;;;;;;1999.90;999.90;;;;;;;17.66;100.00;93849.13;5064072;28;20247;-46
2023/08/27 08:35:43;;;;;;;1999.90;999.90;;;;;;;17.65;100.00;93864.94;5063790;28;20197;-51
2023/08/27 08:38:08;;;;;;;1999.90;999.90;;;;;;;17.79;100.00;93861.31;5064014;28;20166;-50
2023/08/27 08:40:44;;;;;;;1999.90;999.90;;;;;;;18.00;100.00;93839.91;5063552;28;20174;-53
2023/08/27 08:43:16;;;;;;;1999.90;999.90;;;;;;;18.02;100.00;93848.47;5063543;28;20193;-52
2023/08/27 08:45:54;;;;;;;1999.90;999.90;;;;;;;17.93;100.00;93865.22;5063853;28;20190;-45
2023/08/27 08:48:25;;;;;;;1999.90;999.90;;;;;;;18.04;100.00;93868.09;5063826;28;20166;-46
2023/08/27 08:50:53;;;;;;;1999.90;999.90;;;;;;;18.12;100.00;93871.91;5064524;28;20166;-48
2023/08/27 08:53:20;;;;;;;1999.90;999.90;;;;;;;18.14;100.00;93878.47;5067682;28;20205;-48
2023/08/27 08:55:47;;;;;;;1999.90;999.90;;;;;;;18.09;100.00;93883.94;5067239;28;20198;-49
2023/08/27 08:58:13;;;;;;;1999.90;999.90;;;;;;;18.21;100.00;93882.81;5067175;28;20170;-50
2023/08/27 09:00:39;;;;;;;1999.90;999.90;;;;;;;18.19;100.00;93880.53;5067491;28;20260;-47
2023/08/27 09:03:05;;;;;;;1999.90;999.90;;;;;;;18.21;100.00;93893.88;5067080;28;20174;-45
2023/08/27 09:05:35;;;;;;;1999.90;999.90;;;;;;;18.13;100.00;93892.78;5066826;28;20185;-48
2023/08/27 09:08:03;;;;;;;1999.90;999.90;;;;;;;18.20;100.00;93881.28;5067404;28;20193;-48
2023/08/27 09:10:31;;;;;;;1999.90;999.90;;;;;;;18.12;100.00;93891.25;5066956;28;20241;-47
2023/08/27 09:12:58;;;;;;;1999.90;999.90;;;;;;;18.18;100.00;93911.44;5067340;28;20169;-51
2023/08/27 09:15:24;;;;;;;1999.90;999.90;;;;;;;18.14;100.00;93914.41;5067287;28;20194;-51
2023/08/27 09:17:49;;;;;;;1999.90;999.90;;;;;;;18.16;100.00;93916.69;5067294;28;20249;-49
2023/08/27 09:20:15;;;;;;;1999.90;999.90;;;;;;;18.08;100.00;93927.41;5067256;28;20249;-47
2023/08/27 09:22:41;;;;;;;1999.90;999.90;;;;;;;18.02;100.00;93925.81;5066739;28;20170;-50
2023/08/27 09:25:09;;;;;;;1999.90;999.90;;;;;;;18.00;100.00;93920.03;5067186;28;20173;-51
2023/08/27 09:27:35;;;;;;;1999.90;999.90;;;;;;;17.91;100.00;93915.44;5067376;28;20166;-52
2023/08/27 09:30:02;;;;;;;1999.90;999.90;;;;;;;17.93;100.00;93914.94;5066196;28;20224;-50
2023/08/27 09:32:28;;;;;;;1999.90;999.90;;;;;;;17.83;100.00;93897.00;5066450;28;20231;-48
2023/08/27 09:35:01;;;;;;;1999.90;999.90;;;;;;;17.69;100.00;93897.84;5066477;28;20257;-53
2023/08/27 09:37:28;;;;;;;1999.90;999.90;;;;;;;17.58;100.00;93897.72;5066360;28;20181;-48
2023/08/27 09:39:54;;;;;;;1999.90;999.90;;;;;;;17.54;100.00;93892.41;5066889;28;20158;-49
2023/08/27 09:42:21;;;;;;;1999.90;999.90;;;;;;;17.54;100.00;93880.59;5066223;28;20165;-50
2023/08/27 09:44:51;;;;;;;1999.90;999.90;;;;;;;17.47;100.00;93875.50;5066161;28;20182;-49
2023/08/27 09:47:18;;;;;;;1999.90;999.90;;;;;;;17.44;100.00;93876.50;5066339;28;20177;-48
2023/08/27 09:49:43;;;;;;;1999.90;999.90;;;;;;;17.43;100.00;93870.19;5066399;28;20163;-49
2023/08/27 09:52:09;;;;;;;1999.90;999.90;;;;;;;17.38;100.00;93868.13;5065813;28;20189;-48
2023/08/27 09:54:34;;;;;;;1999.90;999.90;;;;;;;17.41;100.00;93858.88;5066059;28;20162;-55
2023/08/27 09:57:00;;;;;;;1999.90;999.90;;;;;;;17.43;100.00;93864.69;5066616;28;20220;-55
2023/08/27 09:59:26;;;;;;;1999.90;999.90;;;;;;;17.49;100.00;93859.22;5066502;28;20165;-56
2023/08/27 10:01:52;;;;;;;1999.90;999.90;;;;;;;17.55;100.00;93854.53;5065044;28;20177;-54
2023/08/27 10:04:20;;;;;;;1999.90;999.90;;;;;;;17.54;100.00;93844.72;5065958;28;20166;-44
2023/08/27 10:06:46;;;;;;;1999.90;999.90;;;;;;;17.48;100.00;93854.97;5065570;28;20237;-45
2023/08/27 10:09:12;;;;;;;1999.90;999.90;;;;;;;17.30;100.00;93866.25;5065803;28;20207;-49
2023/08/27 10:11:38;;;;;;;1999.90;999.90;;;;;;;17.09;100.00;93848.16;5065901;28;20158;-52
2023/08/27 10:14:04;;;;;;;1999.90;999.90;;;;;;;17.07;100.00;93839.59;5066321;28;20162;-47
2023/08/27 10:16:36;;;;;;;1999.90;999.90;;;;;;;17.06;100.00;93835.34;5066209;28;20247;-50
2023/08/27 10:19:04;;;;;;;1999.90;999.90;;;;;;;17.11;100.00;93826.38;5065953;28;20236;-47
2023/08/27 10:21:30;;;;;;;1999.90;999.90;;;;;;;17.09;100.00;93824.13;5065588;28;20162;-47
2023/08/27 10:23:56;;;;;;;1999.90;999.90;;;;;;;17.14;100.00;93814.38;5066082;28;20158;-50
2023/08/27 10:26:23;;;;;;;1999.90;999.90;;;;;;;17.00;100.00;93799.41;5065505;28;20162;-47
2023/08/27 10:28:51;;;;;;;1999.90;999.90;;;;;;;16.94;100.00;93795.06;5066023;28;20188;-47
2023/08/27 10:31:17;;;;;;;1999.90;999.90;;;;;;;16.91;100.00;93791.28;5065383;28;20215;-50
2023/08/27 10:33:43;;;;;;;1999.90;999.90;;;;;;;16.96;100.00;93792.56;5065336;28;20189;-50
2023/08/27 10:36:15;;;;;;;1999.90;999.90;;;;;;;16.97;100.00;93788.59;5065253;28;20231;-49
2023/08/27 10:38:41;;;;;;;1999.90;999.90;;;;;;;16.91;100.00;93801.56;5065731;28;20158;-49
2023/08/27 10:41:07;;;;;;;1999.90;999.90;;;;;;;16.86;100.00;93802.25;5065097;28;20154;-52
2023/08/27 10:43:34;;;;;;;1999.90;999.90;;;;;;;16.89;100.00;93785.47;5064984;28;20235;-50